KAPF/APF METAR and TAF weather

Enter ICAO airport designator
Station Type Date Time Source
KAPF METAR 2022/01/26 18:53 UTC NOAA

KAPF 261853Z 30007KT 10SM OVC050 25/22 A2996 RMK AO2 SLP144 T02500217


Station Type Date Time Source
KAPF Decoded METAR 2022/01/26 18:53 UTC NOAA

NAPLES MUNICIPAL AIRPORT, FL, United States (KAPF) 26-09N 081-46W
Jan 26, 2022 - 01:53 PM EST / 2022.01.26 1853 UTC
Wind: from the WNW (300 degrees) at 8 MPH (7 KT):0
Visibility: 10 mile(s):0
Sky conditions: overcast
Temperature: 77.0 F (25.0 C)
Dew Point: 71.1 F (21.7 C)
Relative Humidity: 81%
Pressure (altimeter): 29.96 in. Hg (1014 hPa)
ob: KAPF 261853Z 30007KT 10SM OVC050 25/22 A2996 RMK AO2 SLP144 T02500217
cycle: 19

Station Type Date Time Source
KAPF TAF 2022/01/26 18:51 UTC NOAA

TAF KAPF 261749Z 2618/2718 25009KT P6SM VCSH SCT015 BKN030
TEMPO 2618/2620 BKN020
FM262100 35007KT P6SM VCSH SCT015 BKN025
TEMPO 2621/2624 BKN015
FM270000 04008KT P6SM SCT008 BKN025

Example: see airport list